Time;durP1;ratioP1;P1;durP2;ratioP2;P2;SDS_P1;SDS_P2;PMS_P1;PMS_P2;Temp;Humidity;BMP_temperature;BMP_pressure;BME280_temperature;BME280_humidity;BME280_pressure;Samples;Min_cycle;Max_cycle;Signal;HPM_P1;HPM_P2
2022/03/26 00:00:31;;;;;;;39.78;17.13;;;;;;;6.70;87.17;101627.16;5037304;28;20036;-79
2022/03/26 00:02:56;;;;;;;32.30;16.40;;;;;;;6.66;86.69;101618.28;5037174;28;20018;-80
2022/03/26 00:05:22;;;;;;;30.40;15.00;;;;;;;6.63;86.83;101618.25;5037345;28;20112;-80
2022/03/26 00:07:48;;;;;;;32.22;16.42;;;;;;;6.65;86.35;101627.09;5035769;28;20026;-81
2022/03/26 00:10:14;;;;;;;33.55;15.05;;;;;;;6.51;86.73;101634.06;5039115;28;20036;-79
2022/03/26 00:12:40;;;;;;;28.00;15.52;;;;;;;6.50;87.20;101626.97;5038866;28;20026;-79
2022/03/26 00:15:06;;;;;;;28.70;15.52;;;;;;;6.49;87.27;101631.41;5033762;28;20039;-79
2022/03/26 00:17:31;;;;;;;31.05;16.58;;;;;;;6.51;86.68;101624.34;5034353;28;20498;-80
2022/03/26 00:19:57;;;;;;;34.22;15.77;;;;;;;6.43;86.87;101628.69;5036064;28;20025;-79
2022/03/26 00:22:23;;;;;;;31.85;15.63;;;;;;;6.33;87.81;101633.94;5035906;28;20489;-79
2022/03/26 00:24:48;;;;;;;34.42;16.02;;;;;;;6.20;88.55;101626.72;5035841;28;20029;-80
2022/03/26 00:27:14;;;;;;;32.58;17.00;;;;;;;6.16;88.84;101624.91;5034453;28;20025;-79
2022/03/26 00:29:40;;;;;;;37.25;16.55;;;;;;;6.00;89.61;101617.66;5034994;28;20033;-80
2022/03/26 00:32:06;;;;;;;35.70;17.27;;;;;;;5.87;90.32;101627.25;5036436;28;20044;-80
2022/03/26 00:34:32;;;;;;;33.72;16.13;;;;;;;5.89;90.02;101630.81;5037209;28;20525;-79
2022/03/26 00:36:58;;;;;;;43.05;16.50;;;;;;;5.83;90.51;101625.41;5035159;28;20030;-79
2022/03/26 00:39:24;;;;;;;36.10;16.90;;;;;;;5.85;90.44;101622.81;5036644;28;20552;-80
2022/03/26 00:41:49;;;;;;;34.28;17.10;;;;;;;5.83;90.70;101628.06;5034822;28;20033;-81
2022/03/26 00:44:16;;;;;;;33.72;16.55;;;;;;;5.81;90.94;101629.81;5036559;28;20029;-80
2022/03/26 00:46:44;;;;;;;36.47;16.25;;;;;;;5.72;91.24;101632.38;5035326;28;20086;-81
2022/03/26 00:49:10;;;;;;;37.47;16.45;;;;;;;5.65;91.77;101626.09;5035980;28;20372;-79
2022/03/26 00:51:35;;;;;;;32.40;16.13;;;;;;;5.63;91.97;101627.81;5033400;28;20063;-79
2022/03/26 00:54:01;;;;;;;39.35;16.27;;;;;;;5.66;91.96;101626.13;5033773;28;20021;-79
2022/03/26 00:56:26;;;;;;;37.70;17.20;;;;;;;5.64;91.58;101621.66;5034079;28;20395;-79
2022/03/26 00:58:52;;;;;;;34.85;16.45;;;;;;;5.64;91.86;101625.22;5034587;28;20029;-79
2022/03/26 01:01:17;;;;;;;40.95;17.38;;;;;;;5.66;91.75;101618.16;5033177;28;20026;-79
2022/03/26 01:03:42;;;;;;;35.20;17.38;;;;;;;5.63;91.25;101618.13;5034815;28;20026;-79
2022/03/26 01:06:08;;;;;;;37.85;17.70;;;;;;;5.59;92.04;101621.63;5033401;28;20061;-80
2022/03/26 01:08:33;;;;;;;41.72;19.13;;;;;;;5.53;93.05;101621.53;5036740;28;20418;-81
2022/03/26 01:10:59;;;;;;;41.28;18.60;;;;;;;5.46;93.32;101618.78;5035522;28;20056;-78
2022/03/26 01:13:25;;;;;;;31.75;15.90;;;;;;;5.46;93.28;101615.28;5035432;28;20116;-80
2022/03/26 01:15:54;;;;;;;40.00;17.80;;;;;;;5.51;93.34;101616.22;5036435;28;20048;-81
2022/03/26 01:18:19;;;;;;;38.55;17.75;;;;;;;5.47;93.05;101615.28;5036722;28;20029;-80
2022/03/26 01:20:44;;;;;;;34.33;16.45;;;;;;;5.41;93.17;101614.31;5034926;28;20025;-80
2022/03/26 01:23:10;;;;;;;36.13;18.45;;;;;;;5.43;93.61;101618.78;5036965;28;20513;-79
2022/03/26 01:25:36;;;;;;;35.53;18.17;;;;;;;5.31;94.67;101613.31;5035838;28;20040;-80
2022/03/26 01:28:01;;;;;;;39.60;17.85;;;;;;;5.27;94.58;101608.84;5034392;28;20025;-80
2022/03/26 01:30:27;;;;;;;40.38;17.42;;;;;;;5.30;95.38;101614.19;5033560;28;20025;-78
2022/03/26 01:32:53;;;;;;;34.30;17.25;;;;;;;5.25;95.49;101611.47;5033906;28;20018;-80
2022/03/26 01:35:18;;;;;;;38.15;18.35;;;;;;;5.24;95.26;101614.97;5034128;28;20025;-79
2022/03/26 01:37:43;;;;;;;39.97;18.55;;;;;;;5.12;96.05;101607.75;5032609;28;20021;-79
2022/03/26 01:40:09;;;;;;;36.08;16.98;;;;;;;5.20;95.57;101606.13;5034306;28;20117;-79
2022/03/26 01:42:34;;;;;;;41.38;17.00;;;;;;;5.20;95.14;101603.47;5034631;28;20441;-80
2022/03/26 01:45:00;;;;;;;40.30;18.10;;;;;;;5.12;95.58;101602.47;5036633;28;20049;-80
2022/03/26 01:47:25;;;;;;;36.08;17.70;;;;;;;5.16;96.20;101606.91;5035724;28;20064;-80
2022/03/26 01:49:51;;;;;;;39.40;18.73;;;;;;;5.13;96.62;101604.22;5035352;28;20057;-80
2022/03/26 01:52:17;;;;;;;37.35;18.38;;;;;;;5.07;96.67;101601.50;5035877;28;20025;-79
2022/03/26 01:54:43;;;;;;;37.85;18.75;;;;;;;5.03;97.56;101596.16;5036094;28;20538;-80
2022/03/26 01:57:12;;;;;;;39.05;18.77;;;;;;;4.98;97.62;101599.59;5036591;28;20078;-80
2022/03/26 01:59:41;;;;;;;38.53;18.45;;;;;;;4.82;98.62;101590.56;5036205;28;20037;-80
2022/03/26 02:02:09;;;;;;;47.67;20.52;;;;;;;4.88;99.82;101598.59;5036162;28;20021;-80
2022/03/26 02:04:34;;;;;;;38.83;18.90;;;;;;;4.89;99.10;101597.72;5036073;28;20025;-80
2022/03/26 02:07:02;;;;;;;43.25;20.40;;;;;;;4.90;99.45;101594.19;5032887;28;20036;-79
2022/03/26 02:09:33;;;;;;;43.80;19.65;;;;;;;4.79;100.00;101594.06;5037053;28;20118;-79
2022/03/26 02:11:58;;;;;;;45.35;20.65;;;;;;;4.60;100.00;101592.88;5035727;28;20070;-79
2022/03/26 02:14:24;;;;;;;46.28;19.90;;;;;;;4.51;100.00;101594.50;5035830;28;20041;-79
2022/03/26 02:16:49;;;;;;;41.50;20.70;;;;;;;4.53;100.00;101583.94;5037423;28;20021;-78
2022/03/26 02:19:15;;;;;;;40.78;20.35;;;;;;;4.54;100.00;101583.97;5036790;28;20056;-79
2022/03/26 02:21:41;;;;;;;44.10;21.63;;;;;;;4.53;100.00;101578.66;5040697;28;20044;-81
2022/03/26 02:24:08;;;;;;;43.88;20.50;;;;;;;4.70;100.00;101581.56;5039495;28;20044;-80
2022/03/26 02:26:34;;;;;;;44.10;20.08;;;;;;;4.83;100.00;101587.03;5040021;28;20030;-80
2022/03/26 02:29:11;;;;;;;38.30;20.02;;;;;;;4.86;100.00;101581.78;5039971;28;20076;-80
2022/03/26 02:31:38;;;;;;;41.38;20.65;;;;;;;4.76;100.00;101586.97;5038628;28;20021;-81
2022/03/26 02:34:05;;;;;;;42.20;21.08;;;;;;;4.64;100.00;101584.13;5038254;28;20029;-81
2022/03/26 02:36:31;;;;;;;44.53;20.92;;;;;;;4.61;100.00;101582.31;5039985;28;20028;-80
2022/03/26 02:38:56;;;;;;;38.92;19.92;;;;;;;4.66;100.00;101582.41;5039577;28;20108;-80
2022/03/26 02:41:22;;;;;;;40.55;20.13;;;;;;;4.66;100.00;101591.22;5039194;28;20028;-81
2022/03/26 02:43:47;;;;;;;41.25;20.05;;;;;;;4.70;100.00;101592.16;5036916;28;20017;-79
2022/03/26 02:46:12;;;;;;;40.17;21.27;;;;;;;4.49;100.00;101580.34;5051126;22;20136;-72
2022/03/26 02:48:39;;;;;;;48.58;21.50;;;;;;;4.48;100.00;101591.81;5035206;28;20395;-72
2022/03/26 02:51:05;;;;;;;44.10;22.15;;;;;;;4.43;100.00;101591.72;5035480;28;20053;-72
2022/03/26 02:53:30;;;;;;;47.78;22.13;;;;;;;4.46;100.00;101593.53;5035098;28;20128;-72
2022/03/26 02:55:56;;;;;;;42.00;20.75;;;;;;;4.53;100.00;101586.59;5035055;28;20021;-72
2022/03/26 02:58:21;;;;;;;45.97;21.77;;;;;;;4.55;100.00;101593.69;5035008;28;20561;-72
2022/03/26 03:00:47;;;;;;;47.25;21.88;;;;;;;4.55;100.00;101598.09;5035017;28;20029;-72
2022/03/26 03:03:12;;;;;;;47.33;22.17;;;;;;;4.58;100.00;101583.16;5034878;28;20421;-71
2022/03/26 03:05:37;;;;;;;42.40;21.65;;;;;;;4.58;100.00;101583.16;5034888;28;20068;-72
2022/03/26 03:08:03;;;;;;;45.58;22.23;;;;;;;4.49;100.00;101583.00;5035070;28;20395;-72
2022/03/26 03:10:29;;;;;;;42.20;21.52;;;;;;;4.46;100.00;101582.94;5034907;28;20470;-72
2022/03/26 03:12:54;;;;;;;47.67;22.40;;;;;;;4.46;100.00;101580.28;5034733;28;20022;-71
2022/03/26 03:15:20;;;;;;;45.88;23.15;;;;;;;4.49;100.00;101580.34;5034622;28;20363;-72
2022/03/26 03:17:47;;;;;;;48.45;23.58;;;;;;;4.48;100.00;101581.25;5033304;28;20168;-72
2022/03/26 03:20:14;;;;;;;48.33;22.70;;;;;;;4.50;100.00;101590.09;5034581;28;20022;-72
2022/03/26 03:22:40;;;;;;;53.70;24.75;;;;;;;4.45;100.00;101583.81;5033265;28;20025;-72
2022/03/26 03:25:07;;;;;;;53.90;24.38;;;;;;;4.42;100.00;101583.78;5034510;28;20069;-72
2022/03/26 03:27:32;;;;;;;51.33;25.30;;;;;;;4.49;100.00;101580.34;5034340;28;20021;-72
2022/03/26 03:29:58;;;;;;;52.60;22.52;;;;;;;4.44;100.00;101579.38;5034715;28;20041;-72
2022/03/26 03:32:24;;;;;;;45.03;22.70;;;;;;;4.46;100.00;101577.66;5034464;28;20060;-72
2022/03/26 03:34:51;;;;;;;53.20;23.35;;;;;;;4.42;100.00;101586.41;5034398;28;20517;-72
2022/03/26 03:37:16;;;;;;;47.47;22.85;;;;;;;4.32;100.00;101574.78;5034361;28;20065;-72
2022/03/26 03:39:42;;;;;;;50.65;23.27;;;;;;;4.23;100.00;101573.75;5035046;28;20076;-72
2022/03/26 03:42:07;;;;;;;45.38;23.60;;;;;;;4.20;100.00;101576.34;5034723;28;20419;-71
2022/03/26 03:44:32;;;;;;;47.92;24.15;;;;;;;4.14;100.00;101576.25;5033803;28;20067;-72
2022/03/26 03:46:58;;;;;;;45.50;23.33;;;;;;;4.22;100.00;101568.47;5034099;28;20083;-72
2022/03/26 03:49:26;;;;;;;48.72;23.38;;;;;;;4.20;100.00;101570.19;5034199;28;20036;-72
2022/03/26 03:51:52;;;;;;;48.92;24.45;;;;;;;4.18;100.00;101570.16;5034035;28;20422;-72
2022/03/26 03:54:17;;;;;;;50.92;23.80;;;;;;;4.20;100.00;101575.50;5033916;28;20032;-72
2022/03/26 03:56:42;;;;;;;47.90;22.38;;;;;;;4.24;100.00;101572.91;5032693;28;20018;-72
2022/03/26 03:59:08;;;;;;;49.10;24.02;;;;;;;4.26;100.00;101570.28;5033931;28;20371;-72
2022/03/26 04:01:33;;;;;;;52.35;24.60;;;;;;;4.32;100.00;101570.41;5034304;28;20029;-72
2022/03/26 04:03:59;;;;;;;44.78;22.02;;;;;;;4.38;100.00;101566.09;5033983;28;20366;-72
2022/03/26 04:06:24;;;;;;;47.85;23.48;;;;;;;4.26;100.00;101562.34;5032575;28;20397;-72
2022/03/26 04:08:49;;;;;;;53.92;23.80;;;;;;;4.10;100.00;101558.53;5034060;28;20040;-72
2022/03/26 04:11:15;;;;;;;50.00;22.92;;;;;;;4.16;100.00;101563.06;5033650;28;20026;-72
2022/03/26 04:13:40;;;;;;;48.72;23.67;;;;;;;4.32;100.00;101565.13;5032320;28;20014;-72
2022/03/26 04:16:05;;;;;;;44.42;22.27;;;;;;;4.17;100.00;101567.50;5033611;28;20048;-72
2022/03/26 04:18:31;;;;;;;44.85;24.25;;;;;;;3.84;100.00;101569.56;5033618;28;20025;-72
2022/03/26 04:20:57;;;;;;;48.33;24.35;;;;;;;3.83;100.00;101568.66;5032301;28;20116;-72
2022/03/26 04:23:22;;;;;;;54.13;23.42;;;;;;;3.74;100.00;101561.44;5033346;28;20053;-72
2022/03/26 04:25:47;;;;;;;47.05;23.55;;;;;;;3.75;100.00;101562.34;5032429;28;20036;-72
2022/03/26 04:28:13;;;;;;;48.45;22.75;;;;;;;3.71;100.00;101569.31;5033446;28;20033;-72
2022/03/26 04:30:39;;;;;;;46.20;23.67;;;;;;;3.64;100.00;101564.75;5032875;28;20029;-72
2022/03/26 04:33:05;;;;;;;48.20;23.92;;;;;;;3.42;100.00;101573.16;5033623;28;20021;-72
2022/03/26 04:35:31;;;;;;;50.25;24.38;;;;;;;3.33;100.00;101580.88;5033237;28;20025;-72
2022/03/26 04:37:56;;;;;;;48.53;24.48;;;;;;;3.34;100.00;101577.41;5033143;28;20083;-72
2022/03/26 04:40:24;;;;;;;52.85;26.17;;;;;;;3.36;100.00;101575.66;5033362;28;20589;-73
2022/03/26 04:42:50;;;;;;;48.72;24.92;;;;;;;3.44;100.00;101579.38;5033158;28;20029;-72
2022/03/26 04:45:15;;;;;;;52.58;25.20;;;;;;;3.36;100.00;101580.94;5032996;28;20040;-72
2022/03/26 04:47:41;;;;;;;53.45;26.02;;;;;;;3.53;100.00;101583.94;5033177;28;20029;-72
2022/03/26 04:50:07;;;;;;;52.70;25.95;;;;;;;3.59;100.00;101583.16;5033083;28;20036;-72
2022/03/26 04:52:32;;;;;;;51.22;25.88;;;;;;;3.51;100.00;101576.84;5033063;28;20021;-72
2022/03/26 04:54:58;;;;;;;54.20;26.17;;;;;;;3.43;100.00;101574.94;5031755;28;20084;-72
2022/03/26 04:57:24;;;;;;;60.38;27.25;;;;;;;3.40;100.00;101580.16;5033055;28;20061;-72
2022/03/26 04:59:49;;;;;;;52.92;26.40;;;;;;;3.35;100.00;101573.91;5033052;28;20398;-72
2022/03/26 05:02:14;;;;;;;53.03;25.55;;;;;;;3.37;100.00;101577.47;5033324;28;20041;-72
2022/03/26 05:04:40;;;;;;;56.58;25.20;;;;;;;3.64;100.00;101568.31;5031773;28;20112;-71
2022/03/26 05:07:45;;;;;;;52.25;25.88;;;;;;;3.55;100.00;101573.41;5033237;28;20104;-72
2022/03/26 05:09:51;;;;;;;52.05;25.70;;;;;;;3.44;100.00;101568.81;5032867;28;20108;-72
2022/03/26 05:12:17;;;;;;;56.90;25.92;;;;;;;3.54;100.00;101563.69;5032930;28;20060;-72
2022/03/26 05:14:43;;;;;;;55.03;26.80;;;;;;;3.62;100.00;101567.38;5031639;28;20021;-72
2022/03/26 05:17:08;;;;;;;49.38;24.35;;;;;;;3.53;100.00;101580.41;5032796;28;20024;-72
2022/03/26 05:19:34;;;;;;;53.85;26.27;;;;;;;3.57;100.00;101566.41;5032889;28;20028;-72
2022/03/26 05:21:59;;;;;;;56.25;26.02;;;;;;;3.51;100.00;101571.56;5032853;28;20434;-72
2022/03/26 05:24:24;;;;;;;53.35;26.10;;;;;;;3.52;100.00;101576.88;5032701;28;20021;-72
2022/03/26 05:26:50;;;;;;;60.35;26.88;;;;;;;3.56;100.00;101583.09;5032811;28;20380;-72
2022/03/26 05:29:15;;;;;;;56.53;26.92;;;;;;;3.76;100.00;101586.13;5032714;28;20029;-72
2022/03/26 05:31:41;;;;;;;56.47;27.65;;;;;;;3.79;100.00;101585.31;5031466;28;20025;-72
2022/03/26 05:34:06;;;;;;;54.78;25.65;;;;;;;3.89;100.00;101587.25;5032681;28;20037;-72
2022/03/26 05:36:31;;;;;;;58.83;27.23;;;;;;;3.86;100.00;101592.50;5031424;28;20479;-72
2022/03/26 05:38:57;;;;;;;52.13;25.73;;;;;;;3.90;100.00;101591.69;5032918;28;20491;-72
2022/03/26 05:41:23;;;;;;;53.53;27.23;;;;;;;3.92;100.00;101597.00;5033166;28;20022;-72
2022/03/26 05:43:49;;;;;;;60.00;26.85;;;;;;;3.88;100.00;101590.78;5036250;28;20104;-72
2022/03/26 05:46:15;;;;;;;56.20;26.67;;;;;;;3.87;100.00;101603.94;5036320;28;20122;-72
2022/03/26 05:48:40;;;;;;;60.70;27.15;;;;;;;3.86;100.00;101608.38;5036278;28;20021;-72
2022/03/26 05:51:06;;;;;;;57.85;27.05;;;;;;;3.83;100.00;101605.66;5036544;28;20040;-74
2022/03/26 05:53:31;;;;;;;55.67;27.38;;;;;;;3.82;100.00;101613.53;5036230;28;20025;-74
2022/03/26 05:55:56;;;;;;;56.50;26.55;;;;;;;3.81;100.00;101610.03;5036221;28;20021;-73
2022/03/26 05:58:22;;;;;;;55.30;26.23;;;;;;;3.77;100.00;101608.16;5036188;28;20089;-74
2022/03/26 06:00:49;;;;;;;61.83;26.92;;;;;;;3.88;100.00;101604.00;5036138;28;20025;-73
2022/03/26 06:03:15;;;;;;;53.05;25.50;;;;;;;3.79;100.00;101611.72;5036116;28;20025;-73
2022/03/26 06:05:40;;;;;;;57.72;26.95;;;;;;;3.72;100.00;101620.41;5034865;28;20417;-76
2022/03/26 06:08:07;;;;;;;61.25;27.77;;;;;;;3.62;100.00;101624.59;5036077;28;20033;-75
2022/03/26 06:10:34;;;;;;;57.45;27.35;;;;;;;3.66;100.00;101626.47;5034705;28;20030;-75
2022/03/26 06:12:59;;;;;;;56.92;27.75;;;;;;;3.63;100.00;101637.88;5036299;28;20048;-75
2022/03/26 06:15:24;;;;;;;58.03;26.10;;;;;;;3.53;100.00;101641.16;5035852;28;20030;-74
2022/03/26 06:17:50;;;;;;;55.55;26.30;;;;;;;3.34;100.00;101619.63;5035819;28;20053;-74
2022/03/26 06:20:15;;;;;;;60.28;28.08;;;;;;;3.46;100.00;101630.47;5036246;28;20368;-75
2022/03/26 06:22:41;;;;;;;59.30;28.73;;;;;;;3.54;100.00;101633.28;5035721;28;20021;-75
2022/03/26 06:25:06;;;;;;;61.15;28.60;;;;;;;3.66;100.00;101635.25;5035464;28;20022;-74
2022/03/26 06:27:32;;;;;;;58.28;28.02;;;;;;;3.75;100.00;101637.22;5035640;28;20144;-74
2022/03/26 06:29:57;;;;;;;65.85;28.98;;;;;;;3.79;100.00;101643.44;5034393;28;20029;-74
2022/03/26 06:32:22;;;;;;;66.93;30.00;;;;;;;3.87;100.00;101656.81;5035507;28;20025;-75
2022/03/26 06:34:48;;;;;;;64.90;29.40;;;;;;;3.88;100.00;101646.28;5035446;28;20024;-74
2022/03/26 06:37:13;;;;;;;68.72;27.98;;;;;;;4.01;100.00;101649.16;5035455;28;20033;-75
2022/03/26 06:39:38;;;;;;;62.10;28.23;;;;;;;4.07;100.00;101648.41;5035411;28;20017;-74
2022/03/26 06:42:04;;;;;;;63.72;29.05;;;;;;;4.13;100.00;101652.03;5034127;28;20017;-74
2022/03/26 06:44:30;;;;;;;65.25;29.58;;;;;;;4.19;100.00;101647.72;5035023;28;20487;-74
2022/03/26 06:46:55;;;;;;;64.22;28.65;;;;;;;4.32;100.00;101657.69;5035230;28;20037;-74
2022/03/26 06:49:20;;;;;;;63.80;29.23;;;;;;;4.39;100.00;101657.75;5035249;28;20026;-74
2022/03/26 06:51:46;;;;;;;60.50;29.63;;;;;;;4.42;100.00;101660.47;5035185;28;20480;-74
2022/03/26 06:54:11;;;;;;;68.55;31.20;;;;;;;4.55;100.00;101666.88;5034628;28;20037;-75
2022/03/26 06:56:37;;;;;;;71.25;30.70;;;;;;;4.65;100.00;101665.28;5035384;28;20026;-74
2022/03/26 06:59:02;;;;;;;62.08;28.75;;;;;;;4.69;100.00;101661.84;5033791;28;20513;-74
2022/03/26 07:01:27;;;;;;;61.83;28.73;;;;;;;4.58;100.00;101675.78;5033758;28;20121;-74
2022/03/26 07:03:53;;;;;;;61.70;29.70;;;;;;;4.48;100.00;101671.19;5035100;28;20029;-74
2022/03/26 07:06:19;;;;;;;59.50;28.30;;;;;;;4.46;100.00;101672.88;5034878;28;20022;-74
2022/03/26 07:08:45;;;;;;;60.58;30.25;;;;;;;4.51;100.00;101679.13;5033645;28;20032;-75
2022/03/26 07:11:11;;;;;;;61.17;29.65;;;;;;;4.46;100.00;101676.41;5034771;28;20532;-74
2022/03/26 07:13:36;;;;;;;61.30;29.05;;;;;;;4.54;100.00;101679.19;5034717;28;20021;-75
2022/03/26 07:16:02;;;;;;;77.35;32.03;;;;;;;4.67;100.00;101676.75;5034664;28;20022;-74
2022/03/26 07:18:27;;;;;;;61.60;29.98;;;;;;;4.87;100.00;101684.16;5033417;28;20021;-74
2022/03/26 07:20:57;;;;;;;62.95;29.52;;;;;;;4.98;100.00;101693.16;5034648;28;20100;-74
2022/03/26 07:23:22;;;;;;;67.68;30.42;;;;;;;5.20;100.00;101688.22;5034392;28;20075;-74
2022/03/26 07:25:47;;;;;;;60.92;30.10;;;;;;;5.33;100.00;101694.59;5034531;28;20025;-74
2022/03/26 07:28:14;;;;;;;64.60;30.40;;;;;;;5.43;100.00;101690.31;5033251;28;20029;-74
2022/03/26 07:30:39;;;;;;;58.40;28.45;;;;;;;5.56;100.00;101691.38;5034697;28;20402;-74
2022/03/26 07:33:05;;;;;;;61.45;28.83;;;;;;;5.67;100.00;101691.50;5033281;28;20028;-73
2022/03/26 07:35:30;;;;;;;57.90;27.20;;;;;;;5.80;100.00;101695.19;5034371;28;20033;-73
2022/03/26 07:37:56;;;;;;;60.33;27.65;;;;;;;5.89;100.00;101701.47;5034305;28;20017;-73
2022/03/26 07:40:21;;;;;;;55.00;27.08;;;;;;;6.02;100.00;101702.53;5034286;28;20030;-73
2022/03/26 07:42:46;;;;;;;58.45;27.90;;;;;;;6.08;100.00;101699.09;5034440;28;20108;-73
2022/03/26 07:45:12;;;;;;;57.22;26.92;;;;;;;6.17;100.00;101698.28;5034053;28;20037;-73
2022/03/26 07:47:38;;;;;;;54.00;26.88;;;;;;;6.23;100.00;101699.28;5034186;28;20028;-73
2022/03/26 07:50:08;;;;;;;62.28;27.65;;;;;;;6.33;100.00;101702.91;5032899;28;20029;-73
2022/03/26 07:52:35;;;;;;;59.10;26.48;;;;;;;6.48;99.79;101699.53;5032863;28;20033;-73
2022/03/26 07:55:00;;;;;;;55.72;26.48;;;;;;;6.57;99.08;101698.69;5033980;28;20017;-73
2022/03/26 07:57:27;;;;;;;59.30;26.98;;;;;;;6.73;98.88;101700.59;5034015;28;20022;-73
2022/03/26 07:59:53;;;;;;;60.13;27.27;;;;;;;6.74;99.03;101697.97;5033979;28;20032;-74
2022/03/26 08:02:18;;;;;;;63.53;27.90;;;;;;;6.78;97.57;101699.78;5032817;28;20437;-73
2022/03/26 08:04:45;;;;;;;54.70;25.88;;;;;;;6.89;99.14;101694.56;5033080;28;20056;-72
2022/03/26 08:07:11;;;;;;;53.17;26.23;;;;;;;7.06;97.67;101695.59;5033970;28;20029;-73
2022/03/26 08:09:36;;;;;;;54.70;27.48;;;;;;;7.24;98.59;101698.34;5033829;28;20465;-73
2022/03/26 08:12:03;;;;;;;63.28;27.83;;;;;;;7.42;97.93;101698.47;5034229;28;20027;-73
2022/03/26 08:14:29;;;;;;;56.30;26.50;;;;;;;7.59;99.74;101695.91;5032476;28;20018;-73
2022/03/26 08:16:54;;;;;;;54.70;25.80;;;;;;;7.65;98.33;101698.59;5033549;28;20445;-73
2022/03/26 08:19:19;;;;;;;58.35;26.77;;;;;;;8.01;96.09;101697.84;5033628;28;20052;-73
2022/03/26 08:21:45;;;;;;;56.10;26.75;;;;;;;8.02;92.83;101699.63;5032321;28;20029;-73
2022/03/26 08:24:12;;;;;;;54.28;26.20;;;;;;;8.12;91.56;101693.44;5033407;28;20048;-73
2022/03/26 08:26:38;;;;;;;55.47;26.23;;;;;;;8.12;91.62;101690.78;5033488;28;20033;-73
2022/03/26 08:29:03;;;;;;;52.88;25.30;;;;;;;8.39;93.25;101693.50;5033546;28;20083;-73
2022/03/26 08:31:30;;;;;;;55.33;27.13;;;;;;;8.50;93.22;101701.53;5033779;28;20390;-73
2022/03/26 08:33:55;;;;;;;53.15;27.17;;;;;;;8.64;94.99;101708.66;5032703;28;20021;-73
2022/03/26 08:36:22;;;;;;;61.40;27.88;;;;;;;8.82;94.42;101708.69;5033364;28;20032;-73
2022/03/26 08:38:48;;;;;;;63.20;28.02;;;;;;;8.89;93.71;101698.03;5033412;28;20021;-73
2022/03/26 08:41:15;;;;;;;50.67;27.00;;;;;;;9.05;91.27;101706.88;5032006;28;20032;-73
2022/03/26 08:43:40;;;;;;;61.58;27.88;;;;;;;9.10;91.50;101709.53;5033139;28;20099;-73
2022/03/26 08:46:06;;;;;;;53.40;26.80;;;;;;;9.23;91.58;101705.97;5078469;22;20049;-83
2022/03/26 08:48:31;;;;;;;56.85;26.85;;;;;;;9.60;89.49;101696.13;5036337;28;20037;-82
2022/03/26 08:51:00;;;;;;;59.83;27.38;;;;;;;9.69;88.38;101706.75;5033831;28;20093;-85
2022/03/26 08:53:26;;;;;;;53.95;26.77;;;;;;;9.77;89.01;101697.81;5039509;28;20017;-82
2022/03/26 08:55:54;;;;;;;57.20;26.30;;;;;;;9.72;87.07;101704.09;5045717;28;20029;-82
2022/03/26 08:58:19;;;;;;;59.10;27.15;;;;;;;9.98;86.69;101706.63;5044645;28;20029;-82
2022/03/26 09:00:47;;;;;;;54.20;24.73;;;;;;;10.01;86.31;101701.28;5044059;28;20032;-82
2022/03/26 09:03:17;;;;;;;56.63;25.60;;;;;;;10.22;82.76;101712.75;5037130;28;20025;-82
2022/03/26 09:05:43;;;;;;;53.97;24.83;;;;;;;10.40;83.50;101698.41;5037942;28;20433;-81
2022/03/26 09:08:09;;;;;;;48.50;24.83;;;;;;;10.64;80.89;101701.84;5035989;28;20026;-78
2022/03/26 09:10:35;;;;;;;49.28;23.10;;;;;;;10.81;80.00;101704.38;5035638;28;20037;-80
2022/03/26 09:13:03;;;;;;;46.05;22.30;;;;;;;10.98;77.84;101705.16;5042475;28;20082;-82
2022/03/26 09:15:31;;;;;;;50.40;22.67;;;;;;;11.10;76.96;101701.47;5046323;28;20029;-82
2022/03/26 09:18:03;;;;;;;48.13;23.05;;;;;;;11.33;76.05;101708.38;5049516;28;20048;-82
2022/03/26 09:20:31;;;;;;;49.90;23.08;;;;;;;11.69;77.62;101714.22;5049424;28;20025;-83
2022/03/26 09:23:02;;;;;;;42.65;22.83;;;;;;;11.48;75.88;101710.88;5047458;28;20021;-82
2022/03/26 09:25:34;;;;;;;44.75;22.70;;;;;;;12.12;74.69;101711.88;5048945;28;20037;-83
2022/03/26 09:28:09;;;;;;;46.65;23.02;;;;;;;12.07;75.20;101717.31;5049388;28;20025;-83
2022/03/26 09:30:37;;;;;;;45.90;22.35;;;;;;;12.16;74.65;101710.97;5050201;28;20040;-84
2022/03/26 09:33:06;;;;;;;52.13;22.63;;;;;;;12.49;73.85;101712.31;5049851;28;20100;-83
2022/03/26 09:35:34;;;;;;;38.72;20.48;;;;;;;12.55;72.52;101725.59;5048843;28;20033;-83
2022/03/26 09:37:59;;;;;;;35.05;17.98;;;;;;;12.55;70.64;101719.38;5046689;28;20034;-81
2022/03/26 09:40:25;;;;;;;41.67;19.60;;;;;;;12.52;71.03;101722.97;5037545;28;20075;-80
2022/03/26 09:42:56;;;;;;;35.92;17.95;;;;;;;12.53;70.12;101716.69;5037487;28;20029;-81
2022/03/26 09:45:22;;;;;;;36.15;17.10;;;;;;;12.68;69.88;101718.25;5037723;28;20479;-81
2022/03/26 09:47:48;;;;;;;34.33;17.13;;;;;;;12.93;69.23;101725.00;5037192;28;20053;-81
2022/03/26 09:50:17;;;;;;;32.15;16.10;;;;;;;13.03;68.33;101709.66;5038942;28;20025;-82
2022/03/26 09:52:42;;;;;;;29.70;14.50;;;;;;;13.18;65.94;101721.91;5038131;28;20478;-81
2022/03/26 09:55:12;;;;;;;27.00;13.75;;;;;;;13.33;67.20;101720.72;5039320;28;20036;-83
2022/03/26 09:57:37;;;;;;;23.42;12.25;;;;;;;13.54;64.96;101721.22;5038966;28;20510;-81
2022/03/26 10:00:03;;;;;;;25.27;11.82;;;;;;;13.61;64.94;101713.97;5040038;28;20038;-83
2022/03/26 10:02:28;;;;;;;23.27;11.25;;;;;;;13.60;63.46;101709.53;5037911;28;20037;-83
2022/03/26 10:04:53;;;;;;;25.05;12.95;;;;;;;13.63;64.14;101720.22;5037757;28;20027;-83
2022/03/26 10:07:28;;;;;;;25.83;13.65;;;;;;;13.69;64.23;101709.34;5040099;28;20041;-85
2022/03/26 10:09:55;;;;;;;25.10;13.40;;;;;;;13.84;64.97;101707.25;5041738;28;20174;-83
2022/03/26 10:12:21;;;;;;;27.52;14.60;;;;;;;14.17;62.05;101710.13;5041774;28;20490;-82
2022/03/26 10:15:04;;;;;;;31.00;14.23;;;;;;;14.11;62.27;101709.38;5037052;28;20072;-82
2022/03/26 10:17:35;;;;;;;27.10;14.60;;;;;;;14.26;61.13;101708.16;5035585;28;20034;-79
2022/03/26 10:20:10;;;;;;;26.23;13.77;;;;;;;14.49;61.41;101712.09;5035633;28;20017;-81
2022/03/26 10:22:41;;;;;;;15.38;8.45;;;;;;;14.62;56.29;101708.19;5037619;28;20029;-81
2022/03/26 10:25:15;;;;;;;15.60;8.05;;;;;;;14.26;57.28;101713.50;5036422;28;20206;-80
2022/03/26 10:27:48;;;;;;;14.43;9.15;;;;;;;14.37;58.35;101699.84;5037956;28;20398;-81
2022/03/26 10:33:18;;;;;;;19.25;9.82;;;;;;;14.56;58.15;101711.03;5040165;28;20079;-81
2022/03/26 10:35:55;;;;;;;18.15;11.15;;;;;;;14.64;58.77;101702.78;5038596;28;20035;-82
2022/03/26 10:38:29;;;;;;;19.20;10.77;;;;;;;14.47;59.78;101705.88;5039423;28;20071;-80
2022/03/26 10:40:59;;;;;;;21.75;11.52;;;;;;;14.60;60.50;101701.97;5038441;28;20036;-81
2022/03/26 10:43:26;;;;;;;20.15;10.95;;;;;;;14.38;59.25;101713.22;5037244;28;20037;-80
2022/03/26 10:45:55;;;;;;;24.88;11.27;;;;;;;14.49;60.83;101698.66;5036134;28;20025;-80
2022/03/26 10:48:29;;;;;;;17.65;11.45;;;;;;;14.63;59.86;101701.03;5037751;28;20112;-80
2022/03/26 10:50:59;;;;;;;21.33;10.73;;;;;;;14.74;59.94;101693.56;5034299;28;20056;-81
2022/03/26 10:53:37;;;;;;;18.48;10.63;;;;;;;14.84;60.67;101683.44;5036398;28;20080;-81
2022/03/26 10:56:04;;;;;;;16.73;9.75;;;;;;;14.90;59.04;101684.25;5037665;28;20025;-81
2022/03/26 10:58:31;;;;;;;21.30;10.85;;;;;;;14.90;59.39;101686.94;5035770;28;20025;-82
2022/03/26 11:00:57;;;;;;;16.52;10.45;;;;;;;15.03;59.05;101693.78;5037476;28;20076;-82
2022/03/26 11:03:22;;;;;;;20.90;11.00;;;;;;;15.16;58.51;101688.06;5036676;28;20488;-82
2022/03/26 11:05:52;;;;;;;19.58;10.82;;;;;;;15.08;59.72;101689.16;5040597;28;20030;-81
2022/03/26 11:08:18;;;;;;;18.50;11.05;;;;;;;15.28;60.65;101676.97;5042658;28;20025;-81
2022/03/26 11:10:45;;;;;;;22.10;11.85;;;;;;;15.04;60.36;101679.41;5044528;28;20026;-81